Kezdőlap
METAR-TAF:

METAR-TAF

Repülőterek :

Dodge Center Airport (Dodge Center Municipal)

Dodge Center, Minnesota, Amerikai Egyesült Államok

földrajzi szélesség: 44-01-05N, földrajzi hosszúság: 092-49-53W, magasság: 398 m

Jelenlegi meteorológiai megfigyelések

A jelentés 12 perccel ezelõtt készült, 01:55 UTC
Északnyugati szél 15 kt széllökések: 19 kt
Hőmérséklet -4°C
Páratartalom 80%
Légköri nyomás 1019 hPa
Látótávolság: 16.1 km
Borult 1800 lábon

METAR: KTOB 220155Z AUTO 31015G19KT 10SM OVC018 M04/M07 A3010 RMK AO2

Idő: 20:07 (02:07 UTC)


TAF: hiányzik

Meteorológiai megfigyelések és előrejelzések több, mint 4000 repülőtéren (METAR és TAF jelentéseket).

A térképen piros és sárga pontok jelzik az elérhető meteorológiai állomásokat.

Mozgassa az egeret a pont fölött, hogy megjelenjen az állomás neve.

Azután kattintson az időjárási megfigyelések és előrejelzések megtekintéséhez.

A térkép megváltoztatása: kattintson a fekete keresztel jelölt zöld gombra ráközelítéshez, a vonallal jelölt zöld gombra távolításhoz, vagy a zöld nyilakra a szomszédos térképek eléréséhez.


METAR-TAF: